Time;durP1;ratioP1;P1;durP2;ratioP2;P2;SDS_P1;SDS_P2;PMS_P1;PMS_P2;Temp;Humidity;BMP_temperature;BMP_pressure;BME280_temperature;BME280_humidity;BME280_pressure;Samples;Min_cycle;Max_cycle;Signal;HPM_P1;HPM_P2
2022/12/22 03:26:57;;;;;;;3.40;3.10;;;;;;;7.07;100.00;99719.91;6216756;23;19925;-76
2022/12/22 03:29:23;;;;;;;4.43;3.58;;;;;;;7.09;100.00;99720.78;6236019;23;20012;-75
2022/12/22 03:31:50;;;;;;;3.47;3.08;;;;;;;7.09;100.00;99707.75;6211931;23;20049;-75
2022/12/22 03:34:16;;;;;;;3.78;3.10;;;;;;;7.10;100.00;99708.63;6188747;23;20023;-75
2022/12/22 03:36:43;;;;;;;3.50;3.20;;;;;;;7.10;100.00;99703.41;6213722;23;20427;-75
2022/12/22 03:39:09;;;;;;;4.05;3.60;;;;;;;7.11;100.00;99710.34;6213500;23;20727;-75
2022/12/22 03:47:04;;;;;;;3.72;3.42;;;;;;;7.13;100.00;99700.75;6192145;23;20392;-75
2022/12/22 03:49:31;;;;;;;3.92;3.60;;;;;;;7.14;100.00;99696.44;6213335;23;20028;-75
2022/12/22 03:51:57;;;;;;;3.72;3.38;;;;;;;7.15;100.00;99690.38;6213651;23;20373;-76
2022/12/22 03:54:26;;;;;;;3.17;2.97;;;;;;;7.16;100.00;99695.53;6215229;23;20065;-76
2022/12/22 03:56:53;;;;;;;5.97;3.78;;;;;;;7.16;100.00;99685.13;6214719;23;20308;-75
2022/12/22 03:59:20;;;;;;;3.90;3.60;;;;;;;7.18;100.00;99685.13;6212021;23;20024;-76
2022/12/22 04:01:54;;;;;;;3.65;3.28;;;;;;;7.19;100.00;99676.44;6214443;23;20622;-76
2022/12/22 04:04:23;;;;;;;;;;;;;;;7.17;100.00;99673.84;6213753;23;20012;-76
2022/12/22 04:06:50;;;;;;;3.22;3.03;;;;;;;7.18;100.00;99675.56;6213348;23;19922;-75
2022/12/22 04:09:17;;;;;;;4.60;3.85;;;;;;;7.18;100.00;99667.75;6186359;23;20012;-75
2022/12/22 04:14:27;;;;;;;4.35;3.85;;;;;;;7.16;100.00;99666.03;6217654;23;20509;-76
2022/12/22 04:16:54;;;;;;;3.97;3.58;;;;;;;7.16;100.00;99664.31;6214467;23;20018;-76
2022/12/22 04:19:20;;;;;;;4.80;4.25;;;;;;;7.14;100.00;99660.00;6212159;23;20499;-76
2022/12/22 04:21:46;;;;;;;4.88;4.07;;;;;;;7.14;100.00;99660.00;6212949;23;20008;-76
2022/12/22 04:24:14;;;;;;;5.88;4.15;;;;;;;7.14;100.00;99653.03;6214597;23;20016;-77
2022/12/22 04:26:40;;;;;;;3.42;3.15;;;;;;;7.11;100.00;99645.28;6239321;23;20016;-76
2022/12/22 04:29:07;;;;;;;4.43;4.03;;;;;;;7.12;100.00;99647.00;6211863;23;20732;-76
2022/12/22 04:31:33;;;;;;;4.45;4.15;;;;;;;7.11;100.00;99648.72;6210561;23;20012;-76
2022/12/22 04:34:00;;;;;;;4.18;3.80;;;;;;;7.12;100.00;99647.00;6213203;23;20016;-75
2022/12/22 04:36:26;;;;;;;5.10;4.15;;;;;;;7.14;100.00;99647.00;6214010;23;20008;-77
2022/12/22 04:38:53;;;;;;;5.03;3.78;;;;;;;7.15;100.00;99640.91;6239449;23;20012;-77
2022/12/22 04:41:19;;;;;;;4.32;3.92;;;;;;;7.17;100.00;99645.22;6212380;23;20023;-76
2022/12/22 04:43:46;;;;;;;5.70;5.03;;;;;;;7.18;100.00;99649.53;6214329;23;20028;-76
2022/12/22 04:46:12;;;;;;;5.50;4.60;;;;;;;7.18;100.00;99643.47;6188862;23;20027;-76
2022/12/22 04:48:39;;;;;;;4.82;4.28;;;;;;;7.17;100.00;99634.81;6237546;23;20013;-77
2022/12/22 04:51:06;;;;;;;4.45;4.05;;;;;;;7.19;100.00;99634.78;6186597;23;20047;-75
2022/12/22 04:53:32;;;;;;;9.25;4.45;;;;;;;7.20;100.00;99628.72;6213361;23;20913;-77
2022/12/22 04:56:07;;;;;;;4.75;4.00;;;;;;;7.19;100.00;99613.97;6188624;23;20083;-76
2022/12/22 04:58:34;;;;;;;5.82;4.70;;;;;;;7.19;100.00;99609.59;6212723;23;20050;-76
2022/12/22 05:01:17;;;;;;;5.15;4.72;;;;;;;7.21;100.00;99606.97;6210907;23;20022;-85
2022/12/22 05:03:44;;;;;;;5.18;4.57;;;;;;;7.23;100.00;99602.63;6213448;23;20070;-77
2022/12/22 05:06:11;;;;;;;6.32;5.30;;;;;;;7.25;100.00;99604.34;6213975;23;20012;-75
2022/12/22 05:08:38;;;;;;;5.22;4.35;;;;;;;7.25;100.00;99601.72;6213139;23;20205;-77
2022/12/22 05:11:05;;;;;;;6.03;5.43;;;;;;;7.26;100.00;99597.38;6186510;23;20016;-76
2022/12/22 05:13:32;;;;;;;5.32;4.82;;;;;;;7.26;100.00;99594.78;6213979;23;20024;-75
2022/12/22 05:16:13;;;;;;;4.85;4.38;;;;;;;7.24;100.00;99583.53;6213453;23;20019;-76
2022/12/22 05:18:44;;;;;;;5.25;4.75;;;;;;;7.23;100.00;99577.44;6213489;23;20066;-76
2022/12/22 05:21:22;;;;;;;5.00;4.22;;;;;;;7.22;100.00;99577.47;6238248;23;20108;-75
2022/12/22 05:23:53;;;;;;;5.63;4.88;;;;;;;7.22;100.00;99580.09;6212004;23;20449;-76
2022/12/22 05:26:27;;;;;;;5.18;4.70;;;;;;;7.22;100.00;99583.56;6210639;23;20016;-75
2022/12/22 05:29:07;;;;;;;;;;;;;;;7.22;100.00;99573.16;6213536;23;20359;-75
2022/12/22 05:31:39;;;;;;;5.78;5.18;;;;;;;7.24;100.00;99566.16;6236079;23;19919;-75
2022/12/22 05:34:08;;;;;;;7.07;6.10;;;;;;;7.21;100.00;99567.94;6236903;23;20724;-76
2022/12/22 05:36:45;;;;;;;7.75;5.30;;;;;;;7.16;100.00;99564.53;6241074;23;20331;-77
2022/12/22 05:39:24;;;;;;;6.75;5.47;;;;;;;7.12;100.00;99563.72;6213027;23;20510;-78
2022/12/22 05:42:03;;;;;;;7.28;6.22;;;;;;;7.07;100.00;99568.97;6214304;23;20031;-77
2022/12/22 05:45:03;;;;;;;;;;;;;;;;;;;;;
2022/12/22 05:47:40;;;;;;;7.15;5.97;;;;;;;6.96;100.00;99557.81;6213767;23;20008;-77
2022/12/22 05:50:34;;;;;;;;;;;;;;;;;;;;;
2022/12/22 05:53:11;;;;;;;6.63;5.93;;;;;;;6.96;100.00;99550.03;6187967;23;20022;-76
2022/12/22 05:55:46;;;;;;;6.15;5.60;;;;;;;6.98;100.00;99553.47;6214666;23;20042;-76
2022/12/22 05:58:15;;;;;;;9.05;5.32;;;;;;;7.01;100.00;99544.78;6213457;23;20431;-76
2022/12/22 06:00:42;;;;;;;5.88;5.05;;;;;;;7.04;100.00;99545.59;6213120;23;20074;-76
2022/12/22 06:03:28;;;;;;;6.72;5.13;;;;;;;7.09;100.00;99540.31;6188042;23;20019;-75
2022/12/22 06:06:04;;;;;;;6.70;6.03;;;;;;;7.13;100.00;99536.81;6212994;23;20419;-77
2022/12/22 06:08:34;;;;;;;7.47;5.82;;;;;;;7.16;100.00;99536.78;6212669;23;20043;-77
2022/12/22 06:11:28;;;;;;;5.75;5.28;;;;;;;7.18;100.00;99541.97;6213958;23;20008;-77
2022/12/22 06:13:57;;;;;;;6.30;5.28;;;;;;;7.20;100.00;99533.25;6235272;23;20012;-76
2022/12/22 06:16:32;;;;;;;7.55;5.82;;;;;;;7.23;100.00;99532.34;6217440;23;20127;-77
2022/12/22 06:18:59;;;;;;;8.15;6.20;;;;;;;7.24;100.00;99529.72;6213774;23;20008;-77
2022/12/22 06:21:27;;;;;;;10.07;7.60;;;;;;;7.26;100.00;99524.50;6237655;23;20008;-77
2022/12/22 06:23:56;;;;;;;8.05;6.78;;;;;;;7.29;100.00;99527.06;6188483;23;20019;-77
2022/12/22 06:26:25;;;;;;;9.70;7.70;;;;;;;7.29;100.00;99522.72;6214245;23;20012;-77
2022/12/22 06:28:55;;;;;;;11.60;8.07;;;;;;;7.29;100.00;99520.09;6188477;23;20268;-79
2022/12/22 06:31:22;;;;;;;11.60;9.93;;;;;;;7.28;100.00;99525.34;6237714;23;20431;-76
2022/12/22 06:33:50;;;;;;;14.38;10.50;;;;;;;7.25;100.00;99521.03;6213144;23;20016;-77
2022/12/22 06:36:17;;;;;;;9.52;7.43;;;;;;;7.27;100.00;99518.41;6213845;23;20008;-76
2022/12/22 06:38:43;;;;;;;12.10;9.77;;;;;;;7.28;100.00;99518.38;6214207;23;20102;-76
2022/12/22 06:41:12;;;;;;;9.05;8.15;;;;;;;7.31;100.00;99533.09;6238074;23;20019;-76
2022/12/22 06:43:40;;;;;;;8.85;7.43;;;;;;;7.34;100.00;99519.19;6214895;23;20012;-76
2022/12/22 06:46:07;;;;;;;7.93;6.60;;;;;;;7.37;100.00;99516.56;6214359;23;20077;-75
2022/12/22 06:48:34;;;;;;;8.50;6.75;;;;;;;7.39;100.00;99518.25;6214769;23;20040;-77
2022/12/22 06:51:00;;;;;;;7.50;6.05;;;;;;;7.42;100.00;99509.53;6188236;23;20062;-76
2022/12/22 06:53:27;;;;;;;11.38;8.30;;;;;;;7.44;100.00;99510.34;6190686;23;20016;-75
2022/12/22 06:55:53;;;;;;;10.38;7.63;;;;;;;7.45;100.00;99506.88;6189322;23;20013;-77
2022/12/22 06:58:20;;;;;;;12.00;8.38;;;;;;;7.46;100.00;99503.41;6217310;23;20019;-77
2022/12/22 07:00:48;;;;;;;16.58;10.30;;;;;;;7.50;100.00;99504.22;6216470;23;20008;-77
2022/12/22 07:03:15;;;;;;;10.77;7.93;;;;;;;7.50;100.00;99505.06;6242592;22;20016;-76
2022/12/22 07:05:41;;;;;;;7.85;6.90;;;;;;;7.49;100.00;99503.34;6193609;23;20020;-77
2022/12/22 07:08:08;;;;;;;10.35;7.20;;;;;;;7.48;100.00;99505.97;6244197;23;20043;-77
2022/12/22 07:13:22;;;;;;;;;;;;;;;7.45;100.00;99507.72;6217491;23;20023;-76
2022/12/22 07:15:50;;;;;;;10.88;7.93;;;;;;;7.44;100.00;99502.56;6218690;23;19922;-76
2022/12/22 07:18:17;;;;;;;9.05;7.50;;;;;;;7.45;100.00;99499.06;6193339;23;20015;-77
2022/12/22 07:20:43;;;;;;;7.95;7.18;;;;;;;7.47;100.00;99504.25;6219300;23;20019;-76
2022/12/22 07:23:10;;;;;;;9.43;7.25;;;;;;;7.46;100.00;99503.41;6223875;23;20075;-76
2022/12/22 07:25:36;;;;;;;9.95;7.55;;;;;;;7.48;100.00;99503.38;6233434;23;20019;-78
2022/12/22 07:28:04;;;;;;;9.02;8.02;;;;;;;7.49;100.00;99503.34;6200605;23;20015;-79
2022/12/22 07:30:30;;;;;;;8.35;6.72;;;;;;;7.52;100.00;99511.13;6231645;23;20014;-76
2022/12/22 07:32:56;;;;;;;8.07;6.82;;;;;;;7.53;100.00;99512.81;6238132;23;20036;-77
2022/12/22 07:35:23;;;;;;;13.23;7.60;;;;;;;7.55;100.00;99508.47;6236806;23;20043;-76
2022/12/22 07:37:50;;;;;;;19.92;8.43;;;;;;;7.57;100.00;99504.09;6229790;23;20019;-78
2022/12/22 07:40:17;;;;;;;9.30;7.78;;;;;;;7.59;100.00;99506.69;6213492;23;20369;-76
2022/12/22 07:42:46;;;;;;;12.02;8.88;;;;;;;7.60;100.00;99503.16;6236191;23;20012;-76
2022/12/22 07:45:18;;;;;;;10.52;7.43;;;;;;;7.61;100.00;99495.34;6205635;23;20112;-76
2022/12/22 07:47:46;;;;;;;7.22;6.25;;;;;;;7.64;100.00;99504.00;6228393;23;20008;-76
2022/12/22 07:50:24;;;;;;;10.13;7.22;;;;;;;7.66;100.00;99500.47;6230519;23;20123;-76
2022/12/22 07:52:57;;;;;;;10.95;7.03;;;;;;;7.65;100.00;99490.09;6228012;23;20042;-75
2022/12/22 07:55:27;;;;;;;9.15;7.55;;;;;;;7.64;100.00;99489.25;6247127;23;20386;-76
2022/12/22 07:57:54;;;;;;;8.57;6.68;;;;;;;7.64;100.00;99488.38;6217748;23;20008;-78
2022/12/22 08:00:23;;;;;;;7.80;6.95;;;;;;;7.61;100.00;99490.16;6191573;23;20050;-76
2022/12/22 08:02:55;;;;;;;10.88;7.60;;;;;;;7.60;100.00;99491.03;6193133;23;20730;-76
2022/12/22 08:05:24;;;;;;;19.48;9.73;;;;;;;7.60;100.00;99496.22;6217179;23;20024;-76
2022/12/22 08:07:52;;;;;;;12.07;8.13;;;;;;;7.60;100.00;99495.34;6217169;23;20759;-77
2022/12/22 08:10:20;;;;;;;10.82;8.18;;;;;;;7.61;100.00;99499.69;6190812;23;20497;-77
2022/12/22 08:12:47;;;;;;;11.50;6.82;;;;;;;7.60;100.00;99498.84;6216653;23;20570;-76
2022/12/22 08:15:13;;;;;;;10.52;7.78;;;;;;;7.61;100.00;99492.75;6190620;23;20024;-76
2022/12/22 08:17:40;;;;;;;9.02;7.53;;;;;;;7.62;100.00;99498.81;6216100;23;20030;-75
2022/12/22 08:20:08;;;;;;;8.93;7.13;;;;;;;7.60;100.00;99491.03;6214462;23;20023;-76
2022/12/22 08:22:34;;;;;;;9.90;7.35;;;;;;;7.60;100.00;99493.63;6215369;23;20016;-76
2022/12/22 08:25:00;;;;;;;9.93;7.32;;;;;;;7.60;100.00;99496.22;6215919;23;20017;-79
2022/12/22 08:27:38;;;;;;;10.10;6.63;;;;;;;7.61;100.00;99492.75;6214014;23;20015;-79
2022/12/22 08:30:07;;;;;;;11.80;8.32;;;;;;;7.62;100.00;99493.59;6215747;23;20466;-77
2022/12/22 08:32:36;;;;;;;10.85;7.13;;;;;;;7.63;100.00;99503.16;6216300;23;20016;-77
2022/12/22 08:35:05;;;;;;;12.27;8.63;;;;;;;7.64;100.00;99504.88;6216746;23;20038;-77
2022/12/22 08:37:39;;;;;;;9.45;7.03;;;;;;;7.65;100.00;99500.50;6192698;23;20024;-76
2022/12/22 08:40:31;;;;;;;10.23;8.23;;;;;;;7.67;100.00;99499.59;6191184;23;20019;-79
2022/12/22 08:43:05;;;;;;;11.25;8.48;;;;;;;7.70;100.00;99501.31;6238458;23;20058;-78
2022/12/22 08:45:32;;;;;;;9.02;7.43;;;;;;;7.71;100.00;99495.22;6189088;23;20055;-76
2022/12/22 08:47:59;;;;;;;13.63;9.15;;;;;;;7.74;100.00;99506.44;6213773;23;20039;-77
2022/12/22 08:50:25;;;;;;;12.73;9.50;;;;;;;7.76;100.00;99502.06;6214581;23;20023;-77
2022/12/22 08:52:52;;;;;;;10.65;8.85;;;;;;;7.78;100.00;99504.63;6190467;23;20111;-76
2022/12/22 08:55:18;;;;;;;12.60;8.75;;;;;;;7.78;100.00;99500.31;6215777;23;20012;-77
2022/12/22 08:57:49;;;;;;;10.32;8.38;;;;;;;7.80;100.00;99509.84;6215397;23;20020;-77
2022/12/22 09:00:16;;;;;;;8.90;7.47;;;;;;;7.83;100.00;99517.59;6214208;23;20428;-78
2022/12/22 09:05:41;;;;;;;10.20;8.07;;;;;;;7.86;100.00;99518.41;6178371;23;20077;-77
2022/12/22 09:08:17;;;;;;;12.20;9.10;;;;;;;7.88;100.00;99513.19;6218319;23;20035;-76
2022/12/22 09:10:44;;;;;;;8.35;7.53;;;;;;;7.88;100.00;99526.19;6215000;23;20016;-78
2022/12/22 09:13:13;;;;;;;11.68;8.45;;;;;;;7.90;100.00;99519.19;6214876;23;20020;-76
2022/12/22 09:15:43;;;;;;;20.08;12.63;;;;;;;7.90;100.00;99522.69;6191698;23;20016;-80
2022/12/22 09:18:15;;;;;;;12.18;8.05;;;;;;;7.91;100.00;99524.41;6215749;23;20099;-77
2022/12/22 09:20:41;;;;;;;10.80;8.93;;;;;;;7.95;100.00;99525.19;6214221;23;20016;-77
2022/12/22 09:23:11;;;;;;;12.52;9.07;;;;;;;7.98;100.00;99530.38;6187964;23;20016;-78
2022/12/22 09:25:40;;;;;;;10.90;7.70;;;;;;;8.03;100.00;99533.78;6215246;23;20614;-76
2022/12/22 09:28:21;;;;;;;11.48;8.50;;;;;;;8.07;100.00;99529.34;6215126;23;20008;-75
2022/12/22 09:30:52;;;;;;;9.88;7.80;;;;;;;8.09;100.00;99531.03;6188197;23;20016;-76
2022/12/22 09:33:19;;;;;;;10.18;7.22;;;;;;;8.09;100.00;99533.66;6214291;23;20038;-76
2022/12/22 09:35:46;;;;;;;10.15;8.90;;;;;;;8.11;100.00;99541.47;6214507;23;20012;-76
2022/12/22 09:38:13;;;;;;;11.65;8.00;;;;;;;8.11;100.00;99539.72;6214739;23;20030;-80
2022/12/22 09:40:39;;;;;;;11.15;8.32;;;;;;;8.11;100.00;99550.13;6237906;23;20039;-76
2022/12/22 09:43:06;;;;;;;10.60;8.00;;;;;;;8.09;100.00;99546.69;6189310;23;20027;-77
2022/12/22 09:45:33;;;;;;;11.48;8.77;;;;;;;8.11;100.00;99549.28;6239818;23;20048;-79
2022/12/22 09:48:02;;;;;;;10.82;8.93;;;;;;;8.11;100.00;99552.75;6190946;23;20020;-77
2022/12/22 09:50:31;;;;;;;10.60;8.60;;;;;;;8.13;100.00;99547.50;6214230;23;20008;-77
2022/12/22 09:53:03;;;;;;;10.75;7.95;;;;;;;8.12;100.00;99548.38;6215444;23;20012;-79
2022/12/22 09:55:44;;;;;;;13.75;9.25;;;;;;;8.12;100.00;99545.78;6240488;23;20016;-77
2022/12/22 09:58:36;;;;;;;12.35;9.57;;;;;;;8.12;100.00;99558.81;6242648;23;20014;-76
2022/12/22 10:01:13;;;;;;;9.20;7.80;;;;;;;8.11;100.00;99551.91;6190038;23;20625;-77
2022/12/22 10:03:49;;;;;;;12.40;8.55;;;;;;;8.14;100.00;99558.81;6242438;22;20110;-76
2022/12/22 10:07:00;;;;;;;14.00;9.35;;;;;;;8.11;100.00;99555.34;6216383;23;20020;-78
2022/12/22 10:09:30;;;;;;;11.52;8.15;;;;;;;8.08;100.00;99554.53;6183682;23;20024;-76
2022/12/22 10:12:01;;;;;;;11.68;7.28;;;;;;;8.08;100.00;99550.19;6212693;23;20016;-77
2022/12/22 10:14:36;;;;;;;8.27;6.93;;;;;;;8.06;100.00;99553.72;6217494;23;20014;-77
2022/12/22 10:17:21;;;;;;;13.00;7.93;;;;;;;8.05;100.00;99557.19;6242035;23;20036;-76
2022/12/22 10:19:51;;;;;;;9.82;7.55;;;;;;;8.05;100.00;99559.81;6214683;23;20012;-78
2022/12/22 10:22:36;;;;;;;12.02;9.52;;;;;;;8.03;100.00;99561.56;6215408;23;20016;-76
2022/12/22 10:25:07;;;;;;;10.63;8.05;;;;;;;8.03;100.00;99564.16;6209420;23;20020;-77
2022/12/22 10:27:38;;;;;;;12.98;8.25;;;;;;;8.01;100.00;99566.81;6216941;23;20016;-76
2022/12/22 10:30:32;;;;;;;9.63;7.38;;;;;;;7.99;100.00;99558.16;6241012;23;20431;-76
2022/12/22 10:33:12;;;;;;;9.85;7.65;;;;;;;7.97;100.00;99564.28;6215795;23;20008;-77
2022/12/22 10:35:57;;;;;;;9.63;7.35;;;;;;;7.96;100.00;99571.22;6216165;23;20031;-76
2022/12/22 10:38:27;;;;;;;11.15;8.48;;;;;;;7.94;100.00;99573.88;6214995;23;20020;-77
2022/12/22 10:41:19;;;;;;;14.38;9.23;;;;;;;7.96;100.00;99576.44;6214303;23;20023;-76
2022/12/22 10:44:02;;;;;;;12.30;8.77;;;;;;;7.97;100.00;99575.56;6216134;23;20012;-77
2022/12/22 10:46:42;;;;;;;9.27;7.00;;;;;;;8.05;100.00;99573.69;6191630;23;20082;-76
2022/12/22 10:49:21;;;;;;;8.23;6.95;;;;;;;8.23;100.00;99576.91;6237776;23;20012;-76
2022/12/22 10:52:09;;;;;;;10.77;8.02;;;;;;;8.31;100.00;99577.63;6213902;23;20012;-76
2022/12/22 10:54:37;;;;;;;9.70;7.18;;;;;;;8.32;100.00;99578.47;6190716;23;20305;-76
2022/12/22 10:57:15;;;;;;;8.07;6.50;;;;;;;8.30;100.00;99588.94;6219309;23;20071;-77
2022/12/22 10:59:57;;;;;;;8.00;5.85;;;;;;;8.26;100.00;99595.94;6242225;23;20652;-77
2022/12/22 11:02:25;;;;;;;8.52;6.45;;;;;;;8.23;100.00;99601.22;6216072;22;20019;-77
2022/12/22 11:04:53;;;;;;;9.52;6.20;;;;;;;8.24;100.00;99602.09;6240439;22;20013;-77
2022/12/22 11:07:21;;;;;;;7.78;6.28;;;;;;;8.24;100.00;99612.53;6191122;23;20327;-78
2022/12/22 11:09:48;;;;;;;10.38;6.15;;;;;;;8.20;100.00;99609.09;6215137;23;20012;-76
2022/12/22 11:12:30;;;;;;;11.30;7.15;;;;;;;8.19;100.00;99615.19;6190593;23;20077;-77
2022/12/22 11:15:18;;;;;;;9.07;6.72;;;;;;;8.18;100.00;99625.66;6242956;23;20026;-77
2022/12/22 11:18:18;;;;;;;9.93;6.60;;;;;;;8.14;100.00;99631.78;6242114;23;20008;-78
2022/12/22 11:21:08;;;;;;;9.85;7.57;;;;;;;8.10;100.00;99628.38;6189991;23;20028;-78
2022/12/22 11:23:49;;;;;;;13.10;8.20;;;;;;;8.10;100.00;99629.22;6188829;23;20019;-78
2022/12/22 11:26:40;;;;;;;9.98;7.43;;;;;;;8.08;100.00;99633.59;6214001;23;20023;-76
2022/12/22 11:29:32;;;;;;;12.82;8.32;;;;;;;8.08;100.00;99635.34;6190102;23;20439;-77
2022/12/22 11:32:49;;;;;;;13.43;8.35;;;;;;;8.08;100.00;99637.94;6214087;23;20012;-78
2022/12/22 11:35:49;;;;;;;14.77;9.10;;;;;;;8.06;100.00;99637.13;6241351;23;20321;-77
2022/12/22 11:38:55;;;;;;;13.45;8.85;;;;;;;8.08;100.00;99648.38;6241814;23;20114;-78
2022/12/22 11:41:57;;;;;;;16.00;9.65;;;;;;;8.11;100.00;99641.38;6185602;23;20012;-77
2022/12/22 11:44:44;;;;;;;16.63;10.25;;;;;;;8.21;100.00;99626.47;6215520;23;20046;-77
2022/12/22 11:47:36;;;;;;;22.15;12.98;;;;;;;8.39;100.00;99627.88;6241529;23;20685;-80
2022/12/22 11:50:25;;;;;;;14.25;9.52;;;;;;;8.43;100.00;99642.63;6213832;23;20054;-77
2022/12/22 11:53:14;;;;;;;31.10;13.38;;;;;;;8.43;100.00;99649.56;6242011;23;20601;-77
2022/12/22 11:56:02;;;;;;;15.00;9.65;;;;;;;8.40;100.00;99654.84;6244621;23;20096;-77
2022/12/22 11:58:51;;;;;;;15.82;9.88;;;;;;;8.36;100.00;99656.63;6216336;23;20070;-77
2022/12/22 12:02:01;;;;;;;14.93;8.88;;;;;;;8.35;100.00;99661.88;6215473;23;20710;-77
2022/12/22 12:05:03;;;;;;;15.48;9.73;;;;;;;8.31;100.00;99666.28;6178684;23;20028;-77
2022/12/22 12:07:49;;;;;;;16.52;10.40;;;;;;;8.34;100.00;99662.75;6215613;23;20107;-78
2022/12/22 12:10:28;;;;;;;16.33;10.35;;;;;;;8.39;100.00;99668.75;6197019;23;20098;-78
2022/12/22 12:13:16;;;;;;;15.82;9.75;;;;;;;8.40;100.00;99663.50;6198424;23;20012;-76
2022/12/22 12:15:54;;;;;;;14.30;8.95;;;;;;;8.44;100.00;99673.00;6219564;23;20012;-78
2022/12/22 12:18:52;;;;;;;13.05;8.93;;;;;;;8.38;100.00;99675.75;6218515;23;20020;-77
2022/12/22 12:21:48;;;;;;;15.85;9.63;;;;;;;8.36;100.00;99677.50;6242939;23;20016;-78
2022/12/22 12:24:26;;;;;;;16.80;9.93;;;;;;;8.38;100.00;99678.34;6242177;23;20019;-76
2022/12/22 12:27:06;;;;;;;15.98;10.00;;;;;;;8.46;100.00;99675.66;6216965;23;20020;-76
2022/12/22 12:29:59;;;;;;;15.63;10.23;;;;;;;8.56;100.00;99685.03;6214905;23;20013;-77
2022/12/22 12:32:37;;;;;;;14.70;9.57;;;;;;;8.67;100.00;99674.44;6242415;23;20031;-77
2022/12/22 12:35:47;;;;;;;19.05;10.45;;;;;;;8.74;100.00;99680.41;6214229;23;20077;-77
2022/12/22 12:38:45;;;;;;;16.15;9.75;;;;;;;8.74;100.00;99683.84;6213635;23;20081;-78
2022/12/22 12:41:37;;;;;;;18.80;11.18;;;;;;;8.70;100.00;99691.78;6214398;23;20050;-78
2022/12/22 12:44:11;;;;;;;15.60;10.73;;;;;;;8.62;100.00;99697.13;6216307;23;20008;-79
2022/12/22 12:46:50;;;;;;;;;;;;;;;8.53;100.00;99713.78;6215545;23;20020;-78
2022/12/22 12:49:35;;;;;;;16.35;10.85;;;;;;;8.47;100.00;99716.47;6242182;23;19926;-79
2022/12/22 12:52:11;;;;;;;19.52;11.50;;;;;;;8.42;100.00;99719.13;6241601;23;20023;-78
2022/12/22 12:54:46;;;;;;;18.85;11.23;;;;;;;8.37;100.00;99735.72;6240375;23;20012;-77
2022/12/22 12:57:49;;;;;;;20.60;11.43;;;;;;;8.37;100.00;99733.09;6215434;23;20012;-78
2022/12/22 13:00:31;;;;;;;17.23;11.02;;;;;;;8.36;100.00;99727.03;6214961;23;20019;-77
2022/12/22 13:03:05;;;;;;;18.63;11.63;;;;;;;8.37;100.00;99735.72;6242220;23;20008;-77
2022/12/22 13:05:54;;;;;;;19.58;11.40;;;;;;;8.38;100.00;99732.22;6189689;23;20016;-78
2022/12/22 13:08:25;;;;;;;17.65;10.32;;;;;;;8.41;100.00;99730.44;6214607;23;20028;-77
2022/12/22 13:10:54;;;;;;;16.80;11.57;;;;;;;8.42;100.00;99729.56;6240648;23;20020;-77
2022/12/22 13:13:21;;;;;;;17.05;11.63;;;;;;;8.42;100.00;99733.91;6188502;23;20012;-80
2022/12/22 13:16:01;;;;;;;16.35;10.45;;;;;;;8.39;100.00;99739.19;6240992;23;20016;-77
2022/12/22 13:18:28;;;;;;;17.40;11.07;;;;;;;8.38;100.00;99737.44;6243136;23;20012;-78
2022/12/22 13:21:16;;;;;;;16.20;10.27;;;;;;;8.42;100.00;99746.94;6241804;23;20012;-80
2022/12/22 13:23:58;;;;;;;18.25;11.98;;;;;;;8.48;100.00;99740.81;6244085;23;20012;-78
2022/12/22 13:26:32;;;;;;;15.80;11.18;;;;;;;8.56;100.00;99758.06;6217814;23;20012;-78
2022/12/22 13:29:26;;;;;;;17.48;11.07;;;;;;;8.63;100.00;99763.19;6212655;23;20016;-79
2022/12/22 13:32:17;;;;;;;20.92;12.85;;;;;;;8.69;100.00;99770.94;6239496;23;20016;-78
2022/12/22 13:35:04;;;;;;;18.88;11.85;;;;;;;8.65;100.00;99774.47;6190224;23;20136;-78
2022/12/22 13:37:41;;;;;;;18.88;10.23;;;;;;;8.65;100.00;99780.56;6217123;23;20046;-77
2022/12/22 13:40:15;;;;;;;17.77;10.75;;;;;;;8.56;100.00;99778.09;6214414;23;20012;-77
2022/12/22 13:43:00;;;;;;;18.15;12.35;;;;;;;8.36;100.00;99779.19;6242006;23;20022;-77
2022/12/22 13:45:38;;;;;;;19.42;11.82;;;;;;;8.14;100.00;99793.41;6216632;23;20756;-76
2022/12/22 13:48:24;;;;;;;22.10;12.98;;;;;;;7.91;100.00;99802.38;6214147;23;20578;-79
2022/12/22 13:50:57;;;;;;;22.40;11.20;;;;;;;7.75;100.00;99802.53;6218015;23;20619;-77
2022/12/22 13:53:38;;;;;;;19.60;12.43;;;;;;;7.62;100.00;99793.13;6215999;23;20020;-78
2022/12/22 13:56:11;;;;;;;18.92;12.30;;;;;;;7.56;100.00;99793.19;6215347;23;20038;-78
2022/12/22 13:58:43;;;;;;;23.65;13.05;;;;;;;7.49;100.00;99792.41;6217710;23;20031;-77
2022/12/22 14:01:17;;;;;;;18.90;11.05;;;;;;;7.56;100.00;99793.19;6215012;23;20016;-78
2022/12/22 14:03:55;;;;;;;23.92;12.57;;;;;;;7.56;100.00;99806.22;6214595;22;20766;-78
2022/12/22 14:06:38;;;;;;;18.80;11.65;;;;;;;7.52;100.00;99804.53;6216298;23;20050;-78
2022/12/22 14:09:18;;;;;;;17.02;10.98;;;;;;;7.44;100.00;99802.88;6189704;23;20012;-76
2022/12/22 14:12:01;;;;;;;23.75;10.93;;;;;;;7.42;100.00;99808.97;6239900;23;20024;-76
2022/12/22 14:14:35;;;;;;;24.42;12.50;;;;;;;7.52;100.00;99804.53;6240865;23;20664;-76
2022/12/22 14:17:03;;;;;;;15.75;11.18;;;;;;;7.41;100.00;99809.84;6215744;23;20062;-76
2022/12/22 14:19:38;;;;;;;19.35;10.50;;;;;;;7.32;100.00;99808.19;6215436;23;20028;-77
2022/12/22 14:22:14;;;;;;;19.90;10.07;;;;;;;7.31;100.00;99816.88;6222601;23;20039;-77
2022/12/22 14:24:54;;;;;;;16.38;10.80;;;;;;;7.29;100.00;99809.06;6211373;23;20035;-77
2022/12/22 14:27:42;;;;;;;19.58;10.95;;;;;;;7.18;100.00;99813.50;6199204;23;20026;-79
2022/12/22 14:30:22;;;;;;;19.55;9.73;;;;;;;7.10;100.00;99807.50;6241332;23;20019;-77
2022/12/22 14:32:53;;;;;;;16.60;10.50;;;;;;;7.06;100.00;99817.06;6190914;23;20121;-78
2022/12/22 14:35:20;;;;;;;15.75;9.02;;;;;;;7.04;100.00;99821.44;6218551;23;20043;-76
2022/12/22 14:37:52;;;;;;;18.17;9.98;;;;;;;7.06;100.00;99826.63;6249783;23;20154;-78
2022/12/22 14:40:40;;;;;;;14.15;8.77;;;;;;;6.99;100.00;99823.22;6219615;23;20023;-76
2022/12/22 14:43:26;;;;;;;15.18;8.32;;;;;;;6.83;100.00;99824.19;6247812;23;20070;-77
2022/12/22 14:46:04;;;;;;;14.60;7.55;;;;;;;6.86;100.00;99814.63;6199694;23;20016;-78
2022/12/22 14:48:39;;;;;;;14.60;8.52;;;;;;;6.82;100.00;99819.88;6249349;23;20024;-76
2022/12/22 14:51:06;;;;;;;22.88;8.95;;;;;;;6.68;100.00;99828.63;6217976;23;20494;-77
2022/12/22 14:53:43;;;;;;;14.50;8.05;;;;;;;6.65;100.00;99833.88;6189984;23;20023;-77
2022/12/22 14:56:13;;;;;;;10.68;6.90;;;;;;;6.59;100.00;99836.50;6215733;23;20016;-76
2022/12/22 14:58:43;;;;;;;17.63;7.53;;;;;;;6.56;100.00;99836.53;6216654;23;20027;-77
2022/12/22 15:01:27;;;;;;;11.38;7.72;;;;;;;6.51;100.00;99835.69;6190813;23;20095;-77
2022/12/22 15:04:00;;;;;;;11.63;6.85;;;;;;;6.48;100.00;99844.34;6215704;23;20101;-77
2022/12/22 15:06:27;;;;;;;13.52;7.18;;;;;;;6.48;100.00;99848.69;6215438;23;20012;-76
2022/12/22 15:09:13;;;;;;;13.77;7.25;;;;;;;6.40;100.00;99848.72;6242432;23;20012;-77
2022/12/22 15:11:45;;;;;;;12.55;6.20;;;;;;;6.36;100.00;99857.41;6235951;23;20016;-76
2022/12/22 15:14:16;;;;;;;8.73;5.65;;;;;;;6.36;100.00;99860.88;6217378;23;20477;-77
2022/12/22 15:16:44;;;;;;;9.43;6.38;;;;;;;6.38;100.00;99866.94;6243467;23;20012;-77
2022/12/22 15:19:15;;;;;;;12.93;7.57;;;;;;;6.42;100.00;99868.63;6220369;23;20015;-77
2022/12/22 15:21:42;;;;;;;12.52;7.47;;;;;;;6.35;100.00;99876.47;6195174;23;20017;-77
2022/12/22 15:24:14;;;;;;;9.75;5.57;;;;;;;6.32;100.00;99881.69;6221167;23;20038;-77
2022/12/22 15:26:42;;;;;;;10.73;6.78;;;;;;;6.31;100.00;99885.16;6219128;23;20030;-77
2022/12/22 15:29:08;;;;;;;8.60;5.75;;;;;;;6.29;100.00;99885.16;6217899;23;20012;-76
2022/12/22 15:31:37;;;;;;;11.95;6.20;;;;;;;6.21;100.00;99885.19;6242629;23;20012;-77
2022/12/22 15:34:12;;;;;;;8.77;5.95;;;;;;;6.13;100.00;99882.63;6219017;23;20020;-77
2022/12/22 15:36:38;;;;;;;10.95;5.40;;;;;;;6.07;100.00;99894.75;6193194;23;20499;-76
2022/12/22 15:39:08;;;;;;;11.95;5.68;;;;;;;6.05;100.00;99889.56;6217179;23;20315;-78
2022/12/22 15:41:35;;;;;;;7.85;4.63;;;;;;;6.11;100.00;99891.28;6216119;23;20084;-76
2022/12/22 15:44:01;;;;;;;9.48;5.07;;;;;;;6.15;100.00;99895.59;6216182;23;20016;-76
2022/12/22 15:46:30;;;;;;;17.52;6.30;;;;;;;6.12;100.00;99887.81;6190150;23;20016;-76